createdAt,value
2022-10-17T00:02:25.139Z,10.50
2022-10-17T00:04:51.893Z,10.50
2022-10-17T00:07:18.702Z,12.83
2022-10-17T00:09:45.530Z,10.83
2022-10-17T00:12:12.278Z,9.73
2022-10-17T00:14:39.145Z,11.47
2022-10-17T00:17:06.379Z,12.20
2022-10-17T00:19:33.483Z,13.30
2022-10-17T00:22:00.278Z,41.90
2022-10-17T00:24:27.030Z,13.27
2022-10-17T00:26:53.765Z,13.17
2022-10-17T00:29:20.523Z,12.83
2022-10-17T00:31:47.281Z,14.57
2022-10-17T00:34:14.114Z,11.83
2022-10-17T00:36:40.906Z,15.07
2022-10-17T00:39:07.598Z,13.63
2022-10-17T00:41:34.807Z,11.40
2022-10-17T00:44:08.118Z,14.10
2022-10-17T00:46:37.161Z,14.27
2022-10-17T00:49:11.013Z,13.13
2022-10-17T00:51:43.530Z,15.53
2022-10-17T00:54:11.790Z,13.93
2022-10-17T00:56:40.431Z,13.70
2022-10-17T00:59:12.338Z,14.20
2022-10-17T01:01:41.475Z,11.97
2022-10-17T01:04:08.507Z,15.43
2022-10-17T01:06:35.226Z,14.43
2022-10-17T01:09:02.052Z,12.50
2022-10-17T01:12:03.003Z,16.90
2022-10-17T01:14:59.520Z,18.40
2022-10-17T01:17:45.974Z,18.03
2022-10-17T01:20:41.643Z,16.70
2022-10-17T01:23:49.786Z,19.00
2022-10-17T01:26:24.071Z,18.27
2022-10-17T01:29:02.878Z,20.20
2022-10-17T01:31:44.750Z,18.13
2022-10-17T01:34:29.392Z,17.03
2022-10-17T01:37:04.814Z,18.17
2022-10-17T01:39:38.517Z,20.50
2022-10-17T01:42:37.470Z,25.50
2022-10-17T01:45:14.539Z,19.73
2022-10-17T01:47:43.024Z,24.37
2022-10-17T01:50:15.510Z,24.63
2022-10-17T01:52:46.929Z,22.97
2022-10-17T01:55:36.631Z,24.30
2022-10-17T01:58:26.879Z,21.67
2022-10-17T02:00:56.467Z,24.40
2022-10-17T02:03:24.745Z,23.03
2022-10-17T02:05:51.638Z,21.87
2022-10-17T02:08:39.679Z,22.33
2022-10-17T02:11:14.798Z,22.13
2022-10-17T02:13:51.391Z,22.53
2022-10-17T02:16:33.195Z,19.57
2022-10-17T02:19:11.976Z,20.10
2022-10-17T02:21:48.175Z,20.50
2022-10-17T02:24:27.135Z,19.10
2022-10-17T02:27:04.446Z,17.40
2022-10-17T02:29:36.475Z,23.03
2022-10-17T02:32:08.722Z,25.87
2022-10-17T02:34:43.682Z,24.97
2022-10-17T02:37:13.434Z,24.83
2022-10-17T02:39:41.076Z,22.03
2022-10-17T02:42:11.246Z,23.30
2022-10-17T02:44:40.498Z,22.93
2022-10-17T02:47:13.834Z,22.33
2022-10-17T02:49:44.016Z,23.07
2022-10-17T02:52:29.562Z,20.60
2022-10-17T02:55:19.774Z,25.80
2022-10-17T02:57:54.460Z,21.83
2022-10-17T03:00:23.673Z,20.87
2022-10-17T03:02:52.956Z,23.00
2022-10-17T03:05:24.750Z,23.73
2022-10-17T03:07:52.137Z,23.87
2022-10-17T03:10:19.844Z,17.43
2022-10-17T03:12:46.670Z,19.83
2022-10-17T03:15:13.931Z,20.63
2022-10-17T03:17:40.910Z,19.33
2022-10-17T03:20:08.064Z,17.93
2022-10-17T03:22:34.949Z,16.03
2022-10-17T03:25:01.681Z,18.47
2022-10-17T03:27:28.642Z,16.30
2022-10-17T03:29:55.608Z,18.57
2022-10-17T03:32:22.408Z,12.10
2022-10-17T03:34:49.195Z,15.87
2022-10-17T03:37:16.004Z,13.27
2022-10-17T03:39:42.793Z,13.67
2022-10-17T03:42:09.600Z,14.17
2022-10-17T03:44:36.440Z,12.30
2022-10-17T03:47:03.416Z,10.77
2022-10-17T03:49:30.065Z,14.87
2022-10-17T03:51:56.844Z,15.03
2022-10-17T03:54:23.605Z,17.00
2022-10-17T03:56:50.346Z,9.13
2022-10-17T03:59:18.200Z,8.87
2022-10-17T04:01:45.111Z,9.07
2022-10-17T04:04:11.985Z,7.23
2022-10-17T04:06:39.255Z,7.57
2022-10-17T04:09:07.194Z,8.10
2022-10-17T04:11:34.486Z,10.13
2022-10-17T04:14:01.263Z,8.60
2022-10-17T04:16:28.244Z,6.03
2022-10-17T04:18:56.917Z,5.97
2022-10-17T04:21:25.719Z,6.23
2022-10-17T04:23:57.150Z,5.67
2022-10-17T04:26:24.377Z,5.33
2022-10-17T04:28:51.754Z,5.53
2022-10-17T04:31:19.034Z,6.30
2022-10-17T04:33:50.220Z,6.17
2022-10-17T04:36:19.097Z,7.43
2022-10-17T04:38:46.097Z,8.63
2022-10-17T04:41:16.017Z,8.87
2022-10-17T04:43:45.586Z,9.87
2022-10-17T04:46:15.688Z,5.27
2022-10-17T04:48:42.765Z,6.40
2022-10-17T04:51:13.249Z,8.67
2022-10-17T04:53:41.524Z,7.10
2022-10-17T04:56:16.638Z,5.80
2022-10-17T04:58:44.703Z,8.80
2022-10-17T05:01:14.398Z,8.27
2022-10-17T05:03:41.685Z,9.27
2022-10-17T05:06:13.647Z,5.10
2022-10-17T05:08:41.156Z,9.13
2022-10-17T05:11:16.890Z,4.97
2022-10-17T05:13:43.778Z,5.83
2022-10-17T05:16:10.862Z,6.33
2022-10-17T05:18:37.591Z,7.93
2022-10-17T05:21:04.836Z,6.67
2022-10-17T05:23:31.693Z,8.57
2022-10-17T05:25:58.430Z,7.67
2022-10-17T05:28:25.454Z,10.53
2022-10-17T05:30:52.279Z,7.03
2022-10-17T05:33:19.174Z,9.67
2022-10-17T05:35:46.196Z,5.47
2022-10-17T05:38:13.016Z,8.47
2022-10-17T05:40:39.858Z,10.73
2022-10-17T05:43:06.792Z,5.77
2022-10-17T05:45:33.681Z,6.57
2022-10-17T05:48:00.445Z,7.50
2022-10-17T05:50:27.331Z,5.30
2022-10-17T05:52:55.326Z,9.70
2022-10-17T05:55:22.609Z,6.63
2022-10-17T05:57:50.482Z,10.57
2022-10-17T06:00:17.422Z,8.53
2022-10-17T06:02:46.219Z,10.77
2022-10-17T06:05:13.589Z,7.30
2022-10-17T06:07:40.588Z,7.87
2022-10-17T06:10:07.930Z,8.50
2022-10-17T06:12:34.694Z,10.80
2022-10-17T06:15:01.684Z,6.90
2022-10-17T06:17:29.311Z,6.10
2022-10-17T06:19:57.380Z,6.30
2022-10-17T06:22:24.190Z,6.10
2022-10-17T06:24:52.650Z,5.57
2022-10-17T06:27:20.790Z,5.47
2022-10-17T06:29:48.248Z,6.17
2022-10-17T06:32:26.630Z,5.60
2022-10-17T06:34:53.545Z,7.27
2022-10-17T06:37:20.359Z,6.60
2022-10-17T06:39:47.157Z,5.60
2022-10-17T06:42:13.919Z,4.93
2022-10-17T06:44:41.376Z,6.60
2022-10-17T06:47:09.534Z,6.10
2022-10-17T06:49:36.246Z,4.93
2022-10-17T06:52:03.036Z,4.23
2022-10-17T06:54:29.875Z,7.23
2022-10-17T06:56:56.873Z,5.37
2022-10-17T06:59:23.623Z,5.10
2022-10-17T07:01:52.705Z,7.50
2022-10-17T07:04:19.696Z,4.57
2022-10-17T07:06:46.552Z,4.97
2022-10-17T07:09:13.440Z,6.93
2022-10-17T07:11:40.251Z,7.07
2022-10-17T07:14:07.062Z,10.20
2022-10-17T07:16:34.343Z,5.90
2022-10-17T07:19:01.212Z,8.43
2022-10-17T07:21:27.978Z,5.50
2022-10-17T07:23:54.717Z,6.70
2022-10-17T07:26:21.499Z,5.03
2022-10-17T07:28:52.859Z,6.53
2022-10-17T07:31:21.592Z,4.17
2022-10-17T07:33:49.292Z,5.53
2022-10-17T07:36:16.864Z,8.40
2022-10-17T07:38:44.132Z,5.53
2022-10-17T07:41:16.483Z,7.72
2022-10-17T07:43:46.101Z,5.28
2022-10-17T07:46:12.988Z,3.35
2022-10-17T07:48:40.304Z,9.98
2022-10-17T07:51:10.097Z,4.05
2022-10-17T07:53:38.620Z,6.43
2022-10-17T07:56:09.469Z,6.10
2022-10-17T07:58:37.007Z,4.82
2022-10-17T08:01:07.470Z,5.87
2022-10-17T08:03:37.116Z,6.47
2022-10-17T08:06:04.105Z,4.93
2022-10-17T08:08:30.913Z,6.63
2022-10-17T08:11:03.777Z,5.45
2022-10-17T08:13:30.583Z,4.40
2022-10-17T08:16:07.257Z,4.07
2022-10-17T08:18:35.061Z,6.80
2022-10-17T08:21:03.600Z,3.05
2022-10-17T08:23:30.320Z,4.35
2022-10-17T08:26:00.491Z,4.18
2022-10-17T08:28:27.718Z,6.82
2022-10-17T08:31:01.636Z,6.75
2022-10-17T08:33:28.368Z,6.13
2022-10-17T08:35:55.193Z,3.90
2022-10-17T08:38:23.301Z,8.80
2022-10-17T08:40:51.914Z,5.50
2022-10-17T08:43:59.393Z,6.35
2022-10-17T08:46:36.035Z,8.23
2022-10-17T08:49:08.760Z,6.57
2022-10-17T08:51:46.030Z,5.82
2022-10-17T08:54:25.614Z,7.20
2022-10-17T08:56:55.427Z,6.07
2022-10-17T08:59:30.603Z,7.22
2022-10-17T09:02:30.631Z,3.53
2022-10-17T09:05:01.746Z,5.15
2022-10-17T09:07:34.595Z,3.80
2022-10-17T09:10:27.189Z,5.57
2022-10-17T09:13:25.008Z,6.72
2022-10-17T09:16:19.482Z,3.60
2022-10-17T09:18:54.310Z,4.57
2022-10-17T09:21:27.241Z,3.50
2022-10-17T09:24:09.101Z,5.90
2022-10-17T09:26:41.561Z,3.53
2022-10-17T09:29:32.414Z,3.30
2022-10-17T09:32:08.962Z,4.75
2022-10-17T09:34:35.752Z,5.40
2022-10-17T09:37:03.002Z,5.40
2022-10-17T09:39:33.134Z,4.93
2022-10-17T09:42:01.607Z,2.47
2022-10-17T09:44:35.618Z,7.03
2022-10-17T09:47:17.735Z,5.28
2022-10-17T09:49:47.412Z,9.98
2022-10-17T09:52:17.242Z,7.80
2022-10-17T09:54:50.040Z,3.08
2022-10-17T09:57:18.918Z,4.32
2022-10-17T10:00:01.833Z,4.90
2022-10-17T10:02:31.288Z,4.50
2022-10-17T10:05:06.717Z,3.92
2022-10-17T10:07:46.287Z,4.32
2022-10-17T10:10:28.170Z,8.07
2022-10-17T10:13:18.056Z,3.45
2022-10-17T10:15:47.556Z,3.83
2022-10-17T10:18:26.367Z,5.75
2022-10-17T10:21:11.840Z,3.85
2022-10-17T10:23:41.192Z,6.28
2022-10-17T10:26:26.165Z,3.38
2022-10-17T10:29:02.601Z,6.05
2022-10-17T10:31:36.973Z,5.93
2022-10-17T10:34:27.040Z,4.03
2022-10-17T10:36:59.855Z,3.80
2022-10-17T10:39:38.671Z,8.25
2022-10-17T10:42:09.391Z,4.80
2022-10-17T10:47:29.011Z,4.47
2022-10-17T10:50:22.468Z,5.18
2022-10-17T10:53:01.149Z,6.47
2022-10-17T10:55:36.553Z,17.08
2022-10-17T10:58:46.275Z,4.30
2022-10-17T11:01:39.004Z,5.63
2022-10-17T11:04:21.695Z,6.05
2022-10-17T11:06:52.512Z,5.68
2022-10-17T11:10:01.442Z,6.18
2022-10-17T11:12:36.956Z,4.25
2022-10-17T11:15:22.328Z,9.75
2022-10-17T11:17:52.789Z,4.18
2022-10-17T11:20:38.415Z,6.00
2022-10-17T11:23:21.439Z,4.60
2022-10-17T11:25:54.094Z,5.63
2022-10-17T11:28:23.442Z,5.32
2022-10-17T11:30:53.063Z,3.67
2022-10-17T11:33:42.088Z,4.90
2022-10-17T11:36:10.475Z,7.00
2022-10-17T11:38:48.489Z,7.60
2022-10-17T11:41:31.861Z,4.90
2022-10-17T11:44:07.859Z,8.48
2022-10-17T11:46:36.414Z,6.22
2022-10-17T11:49:06.535Z,4.30
2022-10-17T11:52:04.630Z,6.93
2022-10-17T11:54:41.115Z,5.55
2022-10-17T11:57:34.876Z,5.03
2022-10-17T12:00:21.979Z,6.50
2022-10-17T12:02:51.547Z,9.18
2022-10-17T12:05:28.908Z,5.72
2022-10-17T12:08:09.608Z,5.50
2022-10-17T12:10:55.159Z,5.75
2022-10-17T12:13:28.208Z,5.78
2022-10-17T12:16:17.735Z,5.47
2022-10-17T12:18:45.220Z,9.02
2022-10-17T12:21:12.256Z,5.28
2022-10-17T12:23:40.068Z,4.47
2022-10-17T12:26:09.543Z,7.00
2022-10-17T12:28:47.239Z,5.32
2022-10-17T12:31:17.496Z,5.30
2022-10-17T12:34:02.008Z,8.05
2022-10-17T12:36:28.908Z,7.40
2022-10-17T12:39:01.683Z,10.60
2022-10-17T12:41:44.785Z,8.75
2022-10-17T12:44:14.916Z,6.75
2022-10-17T12:46:55.435Z,5.82
2022-10-17T12:49:42.211Z,5.10
2022-10-17T12:52:23.638Z,6.93
2022-10-17T12:55:13.071Z,11.57
2022-10-17T12:57:59.111Z,9.07
2022-10-17T13:00:35.007Z,12.63
2022-10-17T13:03:14.891Z,5.32
2022-10-17T13:05:47.245Z,4.10
2022-10-17T13:08:21.988Z,8.70
2022-10-17T13:10:52.521Z,7.30
2022-10-17T13:13:33.673Z,6.13
2022-10-17T13:16:01.003Z,5.20
2022-10-17T13:18:29.744Z,6.28
2022-10-17T13:21:06.139Z,11.65
2022-10-17T13:23:35.787Z,5.30
2022-10-17T13:26:21.922Z,6.75
2022-10-17T13:29:01.968Z,7.93
2022-10-17T13:31:35.273Z,11.38
2022-10-17T13:34:07.270Z,6.28
2022-10-17T13:36:35.491Z,5.10
2022-10-17T13:39:12.417Z,7.38
2022-10-17T13:41:42.011Z,6.70
2022-10-17T13:44:28.933Z,5.60
2022-10-17T13:46:55.977Z,4.55
2022-10-17T13:49:35.411Z,7.97
2022-10-17T13:52:04.712Z,6.15
2022-10-17T13:54:42.730Z,8.40
2022-10-17T13:57:38.661Z,8.00
2022-10-17T14:00:19.837Z,7.32
2022-10-17T14:02:48.175Z,4.88
2022-10-17T14:05:19.249Z,6.45
2022-10-17T14:08:15.129Z,5.28
2022-10-17T14:10:45.419Z,4.40
2022-10-17T14:13:20.441Z,6.85
2022-10-17T14:15:47.355Z,5.20
2022-10-17T14:18:21.865Z,6.65
2022-10-17T14:23:43.292Z,10.55
2022-10-17T14:26:21.415Z,3.63
2022-10-17T14:29:02.708Z,8.52
2022-10-17T14:31:33.790Z,4.65
2022-10-17T14:34:02.829Z,8.38
2022-10-17T14:36:38.505Z,4.63
2022-10-17T14:39:14.127Z,7.22
2022-10-17T14:41:44.479Z,5.40
2022-10-17T14:44:37.594Z,5.18
2022-10-17T14:47:38.202Z,8.90
2022-10-17T14:50:25.364Z,6.20
2022-10-17T14:53:05.022Z,9.30
2022-10-17T14:55:34.876Z,6.60
2022-10-17T14:58:01.974Z,7.60
2022-10-17T15:00:29.056Z,5.97
2022-10-17T15:02:56.611Z,6.05
2022-10-17T15:05:24.338Z,8.43
2022-10-17T15:07:52.001Z,7.18
2022-10-17T15:10:25.397Z,8.32
2022-10-17T15:12:59.202Z,12.80
2022-10-17T15:15:38.208Z,7.03
2022-10-17T15:18:05.800Z,7.15
2022-10-17T15:20:33.519Z,9.40
2022-10-17T15:23:02.420Z,9.13
2022-10-17T15:25:30.687Z,7.65
2022-10-17T15:27:58.436Z,6.30
2022-10-17T15:30:32.051Z,8.23
2022-10-17T15:32:59.532Z,7.07
2022-10-17T15:35:27.355Z,8.48
2022-10-17T15:37:54.723Z,7.72
2022-10-17T15:40:30.634Z,4.85
2022-10-17T15:42:58.197Z,7.78
2022-10-17T15:45:25.419Z,8.20
2022-10-17T15:48:05.090Z,6.78
2022-10-17T15:50:32.504Z,8.40
2022-10-17T15:53:00.028Z,4.57
2022-10-17T15:55:27.181Z,6.85
2022-10-17T15:57:53.998Z,5.78
2022-10-17T16:00:23.714Z,7.55
2022-10-17T16:02:50.581Z,6.10
2022-10-17T16:05:23.456Z,12.68
2022-10-17T16:07:50.882Z,11.07
2022-10-17T16:10:18.494Z,7.65
2022-10-17T16:12:46.081Z,8.00
2022-10-17T16:15:24.864Z,6.13
2022-10-17T16:17:53.522Z,7.03
2022-10-17T16:20:20.885Z,7.55
2022-10-17T16:22:49.043Z,6.15
2022-10-17T16:25:20.765Z,12.52
2022-10-17T16:27:49.621Z,7.78
2022-10-17T16:30:17.133Z,7.43
2022-10-17T16:32:44.008Z,8.13
2022-10-17T16:35:17.926Z,8.40
2022-10-17T16:37:44.888Z,6.28
2022-10-17T16:40:12.144Z,7.45
2022-10-17T16:42:38.902Z,6.32
2022-10-17T16:45:06.324Z,6.55
2022-10-17T16:47:33.128Z,5.43
2022-10-17T16:49:59.938Z,7.88
2022-10-17T16:52:27.003Z,7.75
2022-10-17T16:54:53.969Z,10.38
2022-10-17T16:57:20.807Z,9.75
2022-10-17T16:59:47.696Z,7.28
2022-10-17T17:02:17.550Z,11.90
2022-10-17T17:04:47.421Z,8.52
2022-10-17T17:07:14.377Z,8.47
2022-10-17T17:09:41.509Z,6.97
2022-10-17T17:12:08.494Z,6.93
2022-10-17T17:14:35.518Z,9.40
2022-10-17T17:17:02.378Z,8.77
2022-10-17T17:19:29.360Z,8.33
2022-10-17T17:21:56.190Z,10.25
2022-10-17T17:24:23.315Z,9.93
2022-10-17T17:26:52.494Z,10.23
2022-10-17T17:29:19.651Z,10.53
2022-10-17T17:31:47.125Z,10.13
2022-10-17T17:34:17.287Z,13.83
2022-10-17T17:36:45.287Z,12.90
2022-10-17T17:39:13.902Z,11.53
2022-10-17T17:41:41.651Z,14.77
2022-10-17T17:44:12.564Z,12.83
2022-10-17T17:46:43.539Z,11.33
2022-10-17T17:49:11.576Z,13.30
2022-10-17T17:51:38.784Z,10.90
2022-10-17T17:54:05.674Z,16.23
2022-10-17T17:56:32.784Z,11.37
2022-10-17T17:59:02.213Z,10.20
2022-10-17T18:01:31.792Z,13.13
2022-10-17T18:03:59.408Z,10.50
2022-10-17T18:06:27.792Z,15.60
2022-10-17T18:08:58.171Z,13.63
2022-10-17T18:11:26.189Z,16.13
2022-10-17T18:13:54.654Z,14.77
2022-10-17T18:16:21.549Z,14.87
2022-10-17T18:18:48.337Z,14.07
2022-10-17T18:21:15.236Z,15.37
2022-10-17T18:23:45.053Z,12.57
2022-10-17T18:26:12.587Z,15.70
2022-10-17T18:31:15.415Z,14.10
2022-10-17T18:33:44.652Z,14.47
2022-10-17T18:36:14.084Z,15.33
2022-10-17T18:38:42.499Z,19.63
2022-10-17T18:41:12.811Z,17.43
2022-10-17T18:43:41.572Z,17.43
2022-10-17T18:46:14.070Z,23.20
2022-10-17T18:48:44.562Z,16.40
2022-10-17T18:51:12.699Z,20.27
2022-10-17T18:53:44.652Z,17.67
2022-10-17T18:56:12.432Z,16.33
2022-10-17T18:58:40.382Z,16.67
2022-10-17T19:01:15.468Z,18.63
2022-10-17T19:03:44.430Z,22.27
2022-10-17T19:06:13.585Z,20.33
2022-10-17T19:08:41.776Z,21.33
2022-10-17T19:11:17.677Z,20.63
2022-10-17T19:16:16.890Z,19.77
2022-10-17T19:18:44.436Z,17.67
2022-10-17T19:21:12.155Z,20.53
2022-10-17T19:23:39.223Z,21.07
2022-10-17T19:26:09.529Z,22.90
2022-10-17T19:28:37.958Z,19.83
2022-10-17T19:31:06.500Z,23.47
2022-10-17T19:33:34.027Z,23.57
2022-10-17T19:36:07.190Z,21.60
2022-10-17T19:38:34.585Z,24.20
2022-10-17T19:41:05.085Z,19.47
2022-10-17T19:43:31.917Z,18.30
2022-10-17T19:46:04.289Z,22.53
2022-10-17T19:48:39.490Z,21.37
2022-10-17T19:51:12.741Z,21.93
2022-10-17T19:53:40.083Z,21.27
2022-10-17T19:56:09.048Z,23.43
2022-10-17T19:58:43.691Z,19.40
2022-10-17T20:01:12.683Z,19.03
2022-10-17T20:03:40.412Z,22.03
2022-10-17T20:06:10.152Z,19.37
2022-10-17T20:08:38.653Z,21.30
2022-10-17T20:11:08.792Z,20.77
2022-10-17T20:13:36.985Z,22.23
2022-10-17T20:16:04.975Z,26.50
2022-10-17T20:18:32.030Z,19.93
2022-10-17T20:21:07.759Z,23.83
2022-10-17T20:23:35.241Z,23.07
2022-10-17T20:26:08.734Z,24.47
2022-10-17T20:28:52.393Z,25.30
2022-10-17T20:31:20.333Z,24.33
2022-10-17T20:33:47.223Z,23.70
2022-10-17T20:36:20.425Z,22.73
2022-10-17T20:38:47.878Z,23.60
2022-10-17T20:41:17.977Z,23.60
2022-10-17T20:43:47.623Z,23.63
2022-10-17T20:46:35.152Z,29.80
2022-10-17T20:49:04.198Z,23.60
2022-10-17T20:51:31.402Z,26.60
2022-10-17T20:53:58.661Z,24.77
2022-10-17T20:56:28.489Z,30.00
2022-10-17T20:58:58.100Z,27.33
2022-10-17T21:01:26.092Z,24.60
2022-10-17T21:04:15.811Z,25.33
2022-10-17T21:06:48.140Z,26.00
2022-10-17T21:09:15.373Z,25.40
2022-10-17T21:11:43.252Z,24.47
2022-10-17T21:14:11.572Z,27.40
2022-10-17T21:16:41.904Z,23.87
2022-10-17T21:19:10.999Z,26.70
2022-10-17T21:21:40.390Z,25.10
2022-10-17T21:24:14.638Z,29.23
2022-10-17T21:26:43.188Z,26.70
2022-10-17T21:29:11.929Z,30.23
2022-10-17T21:31:43.943Z,25.87
2022-10-17T21:34:20.845Z,28.43
2022-10-17T21:36:48.628Z,28.80
2022-10-17T21:39:16.236Z,25.43
2022-10-17T21:41:44.292Z,28.60
2022-10-17T21:44:16.950Z,27.53
2022-10-17T21:46:44.298Z,29.03
2022-10-17T21:49:12.480Z,29.33
2022-10-17T21:51:40.024Z,26.47
2022-10-17T21:54:07.243Z,28.03
2022-10-17T21:56:34.879Z,28.67
2022-10-17T21:59:02.882Z,30.37
2022-10-17T22:01:44.628Z,30.53
2022-10-17T22:04:16.412Z,28.50
2022-10-17T22:06:45.233Z,27.70
2022-10-17T22:09:18.491Z,30.83
2022-10-17T22:11:48.109Z,27.70
2022-10-17T22:14:18.542Z,30.80
2022-10-17T22:16:46.531Z,31.63
2022-10-17T22:19:16.198Z,28.73
2022-10-17T22:21:42.995Z,33.07
2022-10-17T22:24:12.904Z,32.00
2022-10-17T22:26:40.142Z,31.00
2022-10-17T22:29:08.389Z,38.50
2022-10-17T22:31:36.009Z,29.20
2022-10-17T22:34:05.238Z,36.03
2022-10-17T22:36:33.060Z,36.63
2022-10-17T22:38:59.906Z,31.93
2022-10-17T22:41:26.786Z,37.37
2022-10-17T22:43:53.613Z,34.47
2022-10-17T22:46:20.403Z,34.97
2022-10-17T22:48:47.385Z,40.10
2022-10-17T22:51:14.741Z,35.83
2022-10-17T22:53:41.562Z,36.10
2022-10-17T22:56:12.244Z,35.83
2022-10-17T22:58:39.328Z,37.17
2022-10-17T23:01:07.685Z,36.37
2022-10-17T23:03:34.943Z,38.00
2022-10-17T23:06:02.607Z,33.30
2022-10-17T23:08:29.917Z,34.87
2022-10-17T23:10:56.898Z,31.97
2022-10-17T23:13:23.879Z,37.43
2022-10-17T23:15:52.605Z,36.00
2022-10-17T23:18:20.267Z,40.53
2022-10-17T23:20:47.554Z,38.30
2022-10-17T23:23:14.465Z,41.03
2022-10-17T23:25:41.276Z,38.40
2022-10-17T23:28:09.074Z,37.67
2022-10-17T23:30:37.416Z,41.27
2022-10-17T23:33:05.045Z,39.47
2022-10-17T23:35:32.264Z,43.93
2022-10-17T23:37:59.101Z,40.83
2022-10-17T23:40:26.044Z,44.43
2022-10-17T23:42:52.835Z,41.87
2022-10-17T23:45:19.765Z,41.20
2022-10-17T23:47:46.692Z,42.77
2022-10-17T23:50:16.589Z,43.10
2022-10-17T23:52:43.716Z,45.70
2022-10-17T23:55:10.878Z,46.83
2022-10-17T23:57:37.764Z,48.30
